sensor_id;sensor_type;location;lat;lon;timestamp;P1;durP1;ratioP1;P2;durP2;ratioP2
16115;SDS011;8162;47.104;15.432;2023-07-13T00:01:46;1.10;;;0.97;;
16115;SDS011;8162;47.104;15.432;2023-07-13T00:04:49;1.23;;;1.10;;
16115;SDS011;8162;47.104;15.432;2023-07-13T00:07:51;1.43;;;1.33;;
16115;SDS011;8162;47.104;15.432;2023-07-13T00:10:52;1.53;;;1.10;;
16115;SDS011;8162;47.104;15.432;2023-07-13T00:13:55;2.00;;;1.00;;
16115;SDS011;8162;47.104;15.432;2023-07-13T00:16:56;2.10;;;1.00;;
16115;SDS011;8162;47.104;15.432;2023-07-13T00:20:00;1.80;;;1.17;;
16115;SDS011;8162;47.104;15.432;2023-07-13T00:23:01;1.50;;;1.13;;
16115;SDS011;8162;47.104;15.432;2023-07-13T00:26:03;1.57;;;1.37;;
16115;SDS011;8162;47.104;15.432;2023-07-13T00:29:04;2.43;;;1.00;;
16115;SDS011;8162;47.104;15.432;2023-07-13T00:32:09;1.43;;;1.03;;
16115;SDS011;8162;47.104;15.432;2023-07-13T00:35:12;2.23;;;1.07;;
16115;SDS011;8162;47.104;15.432;2023-07-13T00:38:13;1.83;;;0.93;;
16115;SDS011;8162;47.104;15.432;2023-07-13T00:41:14;2.33;;;1.20;;
16115;SDS011;8162;47.104;15.432;2023-07-13T00:44:16;1.20;;;1.00;;
16115;SDS011;8162;47.104;15.432;2023-07-13T00:47:17;1.30;;;1.10;;
16115;SDS011;8162;47.104;15.432;2023-07-13T00:50:18;2.03;;;1.30;;
16115;SDS011;8162;47.104;15.432;2023-07-13T00:53:20;1.90;;;1.40;;
16115;SDS011;8162;47.104;15.432;2023-07-13T00:56:22;1.50;;;1.30;;
16115;SDS011;8162;47.104;15.432;2023-07-13T00:59:23;3.70;;;1.30;;
16115;SDS011;8162;47.104;15.432;2023-07-13T01:02:25;2.20;;;1.30;;
16115;SDS011;8162;47.104;15.432;2023-07-13T01:05:26;3.07;;;1.13;;
16115;SDS011;8162;47.104;15.432;2023-07-13T01:08:27;2.90;;;1.23;;
16115;SDS011;8162;47.104;15.432;2023-07-13T01:11:29;2.80;;;1.20;;
16115;SDS011;8162;47.104;15.432;2023-07-13T01:14:30;1.93;;;0.97;;
16115;SDS011;8162;47.104;15.432;2023-07-13T01:17:31;3.57;;;1.27;;
16115;SDS011;8162;47.104;15.432;2023-07-13T01:20:33;1.87;;;1.30;;
16115;SDS011;8162;47.104;15.432;2023-07-13T01:23:36;1.93;;;1.33;;
16115;SDS011;8162;47.104;15.432;2023-07-13T01:26:37;2.83;;;1.53;;
16115;SDS011;8162;47.104;15.432;2023-07-13T01:29:39;1.70;;;1.57;;
16115;SDS011;8162;47.104;15.432;2023-07-13T01:32:41;1.73;;;1.40;;
16115;SDS011;8162;47.104;15.432;2023-07-13T01:35:43;3.40;;;2.20;;
16115;SDS011;8162;47.104;15.432;2023-07-13T01:38:44;5.13;;;2.20;;
16115;SDS011;8162;47.104;15.432;2023-07-13T01:41:45;2.67;;;2.30;;
16115;SDS011;8162;47.104;15.432;2023-07-13T01:44:46;2.93;;;2.40;;
16115;SDS011;8162;47.104;15.432;2023-07-13T01:47:47;3.07;;;2.57;;
16115;SDS011;8162;47.104;15.432;2023-07-13T01:50:48;3.30;;;2.33;;
16115;SDS011;8162;47.104;15.432;2023-07-13T01:53:50;3.17;;;2.37;;
16115;SDS011;8162;47.104;15.432;2023-07-13T01:56:51;3.97;;;2.27;;
16115;SDS011;8162;47.104;15.432;2023-07-13T01:59:52;9.13;;;3.03;;
16115;SDS011;8162;47.104;15.432;2023-07-13T02:02:53;4.37;;;3.07;;
16115;SDS011;8162;47.104;15.432;2023-07-13T02:05:54;3.83;;;3.50;;
16115;SDS011;8162;47.104;15.432;2023-07-13T02:08:55;3.67;;;3.27;;
16115;SDS011;8162;47.104;15.432;2023-07-13T02:11:56;5.33;;;3.30;;
16115;SDS011;8162;47.104;15.432;2023-07-13T02:14:57;5.50;;;4.00;;
16115;SDS011;8162;47.104;15.432;2023-07-13T02:17:58;6.73;;;5.03;;
16115;SDS011;8162;47.104;15.432;2023-07-13T02:20:59;7.27;;;5.23;;
16115;SDS011;8162;47.104;15.432;2023-07-13T02:24:00;8.70;;;5.63;;
16115;SDS011;8162;47.104;15.432;2023-07-13T02:27:01;7.67;;;5.87;;
16115;SDS011;8162;47.104;15.432;2023-07-13T02:30:02;11.43;;;6.03;;
16115;SDS011;8162;47.104;15.432;2023-07-13T02:33:04;10.90;;;6.40;;
16115;SDS011;8162;47.104;15.432;2023-07-13T02:36:05;9.03;;;5.60;;
16115;SDS011;8162;47.104;15.432;2023-07-13T02:39:06;6.07;;;5.03;;
16115;SDS011;8162;47.104;15.432;2023-07-13T02:42:07;6.47;;;5.23;;
16115;SDS011;8162;47.104;15.432;2023-07-13T02:45:08;7.17;;;4.87;;
16115;SDS011;8162;47.104;15.432;2023-07-13T02:48:09;7.70;;;4.80;;
16115;SDS011;8162;47.104;15.432;2023-07-13T02:51:11;7.73;;;4.90;;
16115;SDS011;8162;47.104;15.432;2023-07-13T02:54:12;5.47;;;4.10;;
16115;SDS011;8162;47.104;15.432;2023-07-13T02:57:13;6.23;;;3.60;;
16115;SDS011;8162;47.104;15.432;2023-07-13T03:00:14;4.93;;;4.43;;
16115;SDS011;8162;47.104;15.432;2023-07-13T03:03:16;4.90;;;4.30;;
16115;SDS011;8162;47.104;15.432;2023-07-13T03:06:17;4.43;;;3.97;;
16115;SDS011;8162;47.104;15.432;2023-07-13T03:09:18;6.97;;;5.23;;
16115;SDS011;8162;47.104;15.432;2023-07-13T03:12:19;5.20;;;3.60;;
16115;SDS011;8162;47.104;15.432;2023-07-13T03:15:20;7.60;;;3.77;;
16115;SDS011;8162;47.104;15.432;2023-07-13T03:18:22;5.17;;;3.50;;
16115;SDS011;8162;47.104;15.432;2023-07-13T03:21:23;4.97;;;4.17;;
16115;SDS011;8162;47.104;15.432;2023-07-13T03:24:24;4.33;;;3.47;;
16115;SDS011;8162;47.104;15.432;2023-07-13T03:27:25;4.63;;;3.57;;
16115;SDS011;8162;47.104;15.432;2023-07-13T03:30:26;6.40;;;4.50;;
16115;SDS011;8162;47.104;15.432;2023-07-13T03:33:27;4.17;;;3.37;;
16115;SDS011;8162;47.104;15.432;2023-07-13T03:36:29;3.50;;;3.13;;
16115;SDS011;8162;47.104;15.432;2023-07-13T03:39:30;5.17;;;3.73;;
16115;SDS011;8162;47.104;15.432;2023-07-13T03:42:31;4.90;;;3.33;;
16115;SDS011;8162;47.104;15.432;2023-07-13T03:45:32;3.90;;;3.23;;
16115;SDS011;8162;47.104;15.432;2023-07-13T03:48:33;4.63;;;3.13;;
16115;SDS011;8162;47.104;15.432;2023-07-13T03:51:34;3.43;;;3.13;;
16115;SDS011;8162;47.104;15.432;2023-07-13T03:54:36;4.00;;;3.17;;
16115;SDS011;8162;47.104;15.432;2023-07-13T03:57:37;3.07;;;2.77;;
16115;SDS011;8162;47.104;15.432;2023-07-13T04:00:38;4.63;;;3.03;;
16115;SDS011;8162;47.104;15.432;2023-07-13T04:03:39;3.57;;;3.27;;
16115;SDS011;8162;47.104;15.432;2023-07-13T04:06:40;4.10;;;3.70;;
16115;SDS011;8162;47.104;15.432;2023-07-13T04:09:41;5.50;;;4.23;;
16115;SDS011;8162;47.104;15.432;2023-07-13T04:12:42;6.23;;;4.53;;
16115;SDS011;8162;47.104;15.432;2023-07-13T04:15:44;5.03;;;3.60;;
16115;SDS011;8162;47.104;15.432;2023-07-13T04:18:45;4.27;;;3.30;;
16115;SDS011;8162;47.104;15.432;2023-07-13T04:21:46;5.77;;;3.80;;
16115;SDS011;8162;47.104;15.432;2023-07-13T04:24:48;4.43;;;3.90;;
16115;SDS011;8162;47.104;15.432;2023-07-13T04:27:49;4.40;;;3.57;;
16115;SDS011;8162;47.104;15.432;2023-07-13T04:30:50;3.73;;;3.30;;
16115;SDS011;8162;47.104;15.432;2023-07-13T04:33:52;3.20;;;2.90;;
16115;SDS011;8162;47.104;15.432;2023-07-13T04:36:53;3.37;;;2.53;;
16115;SDS011;8162;47.104;15.432;2023-07-13T04:39:54;3.13;;;2.60;;
16115;SDS011;8162;47.104;15.432;2023-07-13T04:42:55;3.43;;;2.80;;
16115;SDS011;8162;47.104;15.432;2023-07-13T04:45:56;6.97;;;3.50;;
16115;SDS011;8162;47.104;15.432;2023-07-13T04:48:57;3.03;;;2.83;;
16115;SDS011;8162;47.104;15.432;2023-07-13T04:51:58;3.87;;;2.80;;
16115;SDS011;8162;47.104;15.432;2023-07-13T04:54:59;4.53;;;3.20;;
16115;SDS011;8162;47.104;15.432;2023-07-13T04:58:00;4.37;;;3.23;;
16115;SDS011;8162;47.104;15.432;2023-07-13T05:01:03;3.93;;;2.97;;
16115;SDS011;8162;47.104;15.432;2023-07-13T05:04:05;6.37;;;3.20;;
16115;SDS011;8162;47.104;15.432;2023-07-13T05:07:06;3.50;;;3.17;;
16115;SDS011;8162;47.104;15.432;2023-07-13T05:10:07;3.63;;;3.27;;
16115;SDS011;8162;47.104;15.432;2023-07-13T05:13:08;3.97;;;2.97;;
16115;SDS011;8162;47.104;15.432;2023-07-13T05:16:09;4.17;;;2.90;;
16115;SDS011;8162;47.104;15.432;2023-07-13T05:19:11;5.33;;;3.47;;
16115;SDS011;8162;47.104;15.432;2023-07-13T05:22:12;3.70;;;3.07;;
16115;SDS011;8162;47.104;15.432;2023-07-13T05:25:13;3.20;;;2.87;;
16115;SDS011;8162;47.104;15.432;2023-07-13T05:28:14;4.40;;;2.50;;
16115;SDS011;8162;47.104;15.432;2023-07-13T05:31:15;3.63;;;2.57;;
16115;SDS011;8162;47.104;15.432;2023-07-13T05:34:16;3.77;;;2.53;;
16115;SDS011;8162;47.104;15.432;2023-07-13T05:37:18;2.80;;;2.60;;
16115;SDS011;8162;47.104;15.432;2023-07-13T05:40:19;3.40;;;2.17;;
16115;SDS011;8162;47.104;15.432;2023-07-13T05:43:20;3.37;;;2.30;;
16115;SDS011;8162;47.104;15.432;2023-07-13T05:46:21;2.63;;;2.23;;
16115;SDS011;8162;47.104;15.432;2023-07-13T05:49:22;4.10;;;2.30;;
16115;SDS011;8162;47.104;15.432;2023-07-13T05:52:23;3.00;;;1.93;;
16115;SDS011;8162;47.104;15.432;2023-07-13T05:55:24;3.10;;;2.00;;
16115;SDS011;8162;47.104;15.432;2023-07-13T05:58:25;3.30;;;2.50;;
16115;SDS011;8162;47.104;15.432;2023-07-13T06:01:26;5.53;;;2.37;;
16115;SDS011;8162;47.104;15.432;2023-07-13T06:04:27;3.10;;;2.50;;
16115;SDS011;8162;47.104;15.432;2023-07-13T06:07:28;3.27;;;2.50;;
16115;SDS011;8162;47.104;15.432;2023-07-13T06:10:32;3.90;;;2.30;;
16115;SDS011;8162;47.104;15.432;2023-07-13T06:13:33;5.17;;;3.33;;
16115;SDS011;8162;47.104;15.432;2023-07-13T06:16:34;3.40;;;2.67;;
16115;SDS011;8162;47.104;15.432;2023-07-13T06:19:35;2.40;;;2.10;;
16115;SDS011;8162;47.104;15.432;2023-07-13T06:22:36;3.33;;;2.20;;
16115;SDS011;8162;47.104;15.432;2023-07-13T06:25:37;5.07;;;2.27;;
16115;SDS011;8162;47.104;15.432;2023-07-13T06:28:38;2.80;;;1.97;;
16115;SDS011;8162;47.104;15.432;2023-07-13T06:31:39;2.43;;;2.23;;
16115;SDS011;8162;47.104;15.432;2023-07-13T06:34:40;3.57;;;2.43;;
16115;SDS011;8162;47.104;15.432;2023-07-13T06:37:41;4.83;;;2.70;;
16115;SDS011;8162;47.104;15.432;2023-07-13T06:40:42;3.73;;;2.63;;
16115;SDS011;8162;47.104;15.432;2023-07-13T06:43:43;4.20;;;2.30;;
16115;SDS011;8162;47.104;15.432;2023-07-13T06:46:45;2.57;;;2.17;;
16115;SDS011;8162;47.104;15.432;2023-07-13T06:49:46;2.60;;;2.37;;
16115;SDS011;8162;47.104;15.432;2023-07-13T06:52:47;2.23;;;2.00;;
16115;SDS011;8162;47.104;15.432;2023-07-13T06:55:48;7.07;;;2.17;;
16115;SDS011;8162;47.104;15.432;2023-07-13T06:58:49;2.77;;;1.97;;
16115;SDS011;8162;47.104;15.432;2023-07-13T07:01:50;1.63;;;1.53;;
16115;SDS011;8162;47.104;15.432;2023-07-13T07:04:51;4.47;;;1.87;;
16115;SDS011;8162;47.104;15.432;2023-07-13T07:07:54;3.30;;;2.10;;
16115;SDS011;8162;47.104;15.432;2023-07-13T07:10:56;2.63;;;1.80;;
16115;SDS011;8162;47.104;15.432;2023-07-13T07:13:57;3.40;;;1.90;;
16115;SDS011;8162;47.104;15.432;2023-07-13T07:16:58;4.20;;;2.00;;
16115;SDS011;8162;47.104;15.432;2023-07-13T07:19:59;2.10;;;1.60;;
16115;SDS011;8162;47.104;15.432;2023-07-13T07:23:00;3.33;;;1.50;;
16115;SDS011;8162;47.104;15.432;2023-07-13T07:26:01;4.00;;;1.53;;
16115;SDS011;8162;47.104;15.432;2023-07-13T07:29:02;2.07;;;1.60;;
16115;SDS011;8162;47.104;15.432;2023-07-13T07:32:03;1.53;;;1.43;;
16115;SDS011;8162;47.104;15.432;2023-07-13T07:35:05;4.07;;;1.80;;
16115;SDS011;8162;47.104;15.432;2023-07-13T07:38:06;2.70;;;1.50;;
16115;SDS011;8162;47.104;15.432;2023-07-13T07:41:09;2.33;;;1.90;;
16115;SDS011;8162;47.104;15.432;2023-07-13T07:44:10;2.10;;;1.47;;
16115;SDS011;8162;47.104;15.432;2023-07-13T07:47:11;1.97;;;1.57;;
16115;SDS011;8162;47.104;15.432;2023-07-13T07:50:13;2.33;;;1.40;;
16115;SDS011;8162;47.104;15.432;2023-07-13T07:53:14;1.53;;;1.30;;
16115;SDS011;8162;47.104;15.432;2023-07-13T07:56:15;3.23;;;1.37;;
16115;SDS011;8162;47.104;15.432;2023-07-13T07:59:16;1.70;;;1.30;;
16115;SDS011;8162;47.104;15.432;2023-07-13T08:02:17;1.50;;;1.40;;
16115;SDS011;8162;47.104;15.432;2023-07-13T08:05:18;1.43;;;1.30;;
16115;SDS011;8162;47.104;15.432;2023-07-13T08:08:19;1.17;;;1.13;;
16115;SDS011;8162;47.104;15.432;2023-07-13T08:11:21;2.50;;;1.10;;
16115;SDS011;8162;47.104;15.432;2023-07-13T08:14:22;1.83;;;1.13;;
16115;SDS011;8162;47.104;15.432;2023-07-13T08:17:24;2.40;;;1.20;;
16115;SDS011;8162;47.104;15.432;2023-07-13T08:20:25;1.27;;;1.00;;
16115;SDS011;8162;47.104;15.432;2023-07-13T08:23:26;2.30;;;1.13;;
16115;SDS011;8162;47.104;15.432;2023-07-13T08:26:27;1.27;;;1.17;;
16115;SDS011;8162;47.104;15.432;2023-07-13T08:29:28;2.30;;;1.30;;
16115;SDS011;8162;47.104;15.432;2023-07-13T08:32:31;1.43;;;1.23;;
16115;SDS011;8162;47.104;15.432;2023-07-13T08:35:32;1.30;;;1.20;;
16115;SDS011;8162;47.104;15.432;2023-07-13T08:38:33;2.50;;;1.03;;
16115;SDS011;8162;47.104;15.432;2023-07-13T08:41:35;1.27;;;1.17;;
16115;SDS011;8162;47.104;15.432;2023-07-13T08:51:13;1.60;;;1.30;;
16115;SDS011;8162;47.104;15.432;2023-07-13T08:54:21;1.30;;;1.00;;
16115;SDS011;8162;47.104;15.432;2023-07-13T08:57:24;2.00;;;1.43;;
16115;SDS011;8162;47.104;15.432;2023-07-13T09:00:34;2.60;;;1.10;;
16115;SDS011;8162;47.104;15.432;2023-07-13T09:03:43;1.20;;;1.00;;
16115;SDS011;8162;47.104;15.432;2023-07-13T09:13:19;1.47;;;1.30;;
16115;SDS011;8162;47.104;15.432;2023-07-13T09:16:22;1.37;;;1.27;;
16115;SDS011;8162;47.104;15.432;2023-07-13T09:19:24;2.00;;;1.30;;
16115;SDS011;8162;47.104;15.432;2023-07-13T09:22:26;2.77;;;1.17;;
16115;SDS011;8162;47.104;15.432;2023-07-13T09:25:32;1.00;;;1.00;;
16115;SDS011;8162;47.104;15.432;2023-07-13T09:28:39;1.53;;;1.30;;
16115;SDS011;8162;47.104;15.432;2023-07-13T09:31:45;1.17;;;1.07;;
16115;SDS011;8162;47.104;15.432;2023-07-13T09:34:54;1.10;;;1.00;;
16115;SDS011;8162;47.104;15.432;2023-07-13T09:37:59;1.57;;;1.30;;
16115;SDS011;8162;47.104;15.432;2023-07-13T09:44:18;1.33;;;1.20;;
16115;SDS011;8162;47.104;15.432;2023-07-13T09:47:21;2.03;;;0.97;;
16115;SDS011;8162;47.104;15.432;2023-07-13T09:50:29;1.97;;;1.13;;
16115;SDS011;8162;47.104;15.432;2023-07-13T09:53:30;1.20;;;1.10;;
16115;SDS011;8162;47.104;15.432;2023-07-13T09:56:31;1.30;;;1.10;;
16115;SDS011;8162;47.104;15.432;2023-07-13T09:59:34;1.53;;;1.40;;
16115;SDS011;8162;47.104;15.432;2023-07-13T10:02:35;1.20;;;1.10;;
16115;SDS011;8162;47.104;15.432;2023-07-13T10:05:37;1.87;;;1.40;;
16115;SDS011;8162;47.104;15.432;2023-07-13T10:08:38;1.67;;;1.30;;
16115;SDS011;8162;47.104;15.432;2023-07-13T10:11:40;3.70;;;1.57;;
16115;SDS011;8162;47.104;15.432;2023-07-13T10:14:42;2.23;;;1.47;;
16115;SDS011;8162;47.104;15.432;2023-07-13T10:17:44;4.20;;;1.90;;
16115;SDS011;8162;47.104;15.432;2023-07-13T10:20:45;4.80;;;1.80;;
16115;SDS011;8162;47.104;15.432;2023-07-13T10:23:47;1.43;;;1.33;;
16115;SDS011;8162;47.104;15.432;2023-07-13T10:26:55;2.63;;;1.30;;
16115;SDS011;8162;47.104;15.432;2023-07-13T10:33:14;3.30;;;1.63;;
16115;SDS011;8162;47.104;15.432;2023-07-13T10:39:24;1.50;;;1.40;;
16115;SDS011;8162;47.104;15.432;2023-07-13T10:42:28;2.97;;;1.37;;
16115;SDS011;8162;47.104;15.432;2023-07-13T10:45:31;3.33;;;1.50;;
16115;SDS011;8162;47.104;15.432;2023-07-13T10:48:34;4.70;;;1.80;;
16115;SDS011;8162;47.104;15.432;2023-07-13T10:51:36;3.60;;;1.60;;
16115;SDS011;8162;47.104;15.432;2023-07-13T10:54:38;1.60;;;1.50;;
16115;SDS011;8162;47.104;15.432;2023-07-13T10:57:42;2.00;;;1.43;;
16115;SDS011;8162;47.104;15.432;2023-07-13T11:00:45;1.97;;;1.60;;
16115;SDS011;8162;47.104;15.432;2023-07-13T11:06:57;1.97;;;1.50;;
16115;SDS011;8162;47.104;15.432;2023-07-13T11:09:59;1.30;;;1.20;;
16115;SDS011;8162;47.104;15.432;2023-07-13T11:13:01;1.40;;;1.30;;
16115;SDS011;8162;47.104;15.432;2023-07-13T11:16:06;2.20;;;1.20;;
16115;SDS011;8162;47.104;15.432;2023-07-13T11:22:17;3.37;;;1.47;;
16115;SDS011;8162;47.104;15.432;2023-07-13T11:28:27;1.60;;;1.40;;
16115;SDS011;8162;47.104;15.432;2023-07-13T11:31:30;1.50;;;1.40;;
16115;SDS011;8162;47.104;15.432;2023-07-13T11:34:35;1.97;;;1.67;;
16115;SDS011;8162;47.104;15.432;2023-07-13T11:37:37;3.27;;;1.70;;
16115;SDS011;8162;47.104;15.432;2023-07-13T11:40:39;2.37;;;1.60;;
16115;SDS011;8162;47.104;15.432;2023-07-13T11:43:40;1.63;;;1.40;;
16115;SDS011;8162;47.104;15.432;2023-07-13T11:46:48;2.33;;;1.60;;
16115;SDS011;8162;47.104;15.432;2023-07-13T11:49:55;2.87;;;1.40;;
16115;SDS011;8162;47.104;15.432;2023-07-13T11:52:57;7.27;;;1.60;;
16115;SDS011;8162;47.104;15.432;2023-07-13T11:55:59;3.17;;;1.40;;
16115;SDS011;8162;47.104;15.432;2023-07-13T11:59:04;3.50;;;1.80;;
16115;SDS011;8162;47.104;15.432;2023-07-13T12:02:25;2.80;;;1.73;;
16115;SDS011;8162;47.104;15.432;2023-07-13T12:05:27;3.87;;;1.57;;
16115;SDS011;8162;47.104;15.432;2023-07-13T12:08:31;3.70;;;2.07;;
16115;SDS011;8162;47.104;15.432;2023-07-13T12:11:40;4.00;;;1.50;;
16115;SDS011;8162;47.104;15.432;2023-07-13T12:14:41;4.63;;;1.70;;
16115;SDS011;8162;47.104;15.432;2023-07-13T12:17:42;2.57;;;1.27;;
16115;SDS011;8162;47.104;15.432;2023-07-13T12:20:44;2.83;;;2.20;;
16115;SDS011;8162;47.104;15.432;2023-07-13T12:23:47;1.63;;;1.50;;
16115;SDS011;8162;47.104;15.432;2023-07-13T12:26:53;2.17;;;1.50;;
16115;SDS011;8162;47.104;15.432;2023-07-13T12:29:59;1.50;;;1.40;;
16115;SDS011;8162;47.104;15.432;2023-07-13T12:33:07;1.97;;;1.40;;
16115;SDS011;8162;47.104;15.432;2023-07-13T12:36:09;1.80;;;1.53;;
16115;SDS011;8162;47.104;15.432;2023-07-13T12:39:20;4.03;;;1.60;;
16115;SDS011;8162;47.104;15.432;2023-07-13T12:42:24;1.57;;;1.47;;
16115;SDS011;8162;47.104;15.432;2023-07-13T12:45:28;2.23;;;1.70;;
16115;SDS011;8162;47.104;15.432;2023-07-13T12:48:29;2.17;;;1.70;;
16115;SDS011;8162;47.104;15.432;2023-07-13T12:51:31;1.87;;;1.67;;
16115;SDS011;8162;47.104;15.432;2023-07-13T12:54:32;2.90;;;1.70;;
16115;SDS011;8162;47.104;15.432;2023-07-13T12:57:37;2.43;;;1.80;;
16115;SDS011;8162;47.104;15.432;2023-07-13T13:00:38;2.13;;;1.70;;
16115;SDS011;8162;47.104;15.432;2023-07-13T13:03:40;2.07;;;1.87;;
16115;SDS011;8162;47.104;15.432;2023-07-13T13:06:42;1.50;;;1.40;;
16115;SDS011;8162;47.104;15.432;2023-07-13T13:09:43;2.87;;;1.57;;
16115;SDS011;8162;47.104;15.432;2023-07-13T13:12:44;4.50;;;1.90;;
16115;SDS011;8162;47.104;15.432;2023-07-13T13:15:45;1.73;;;1.60;;
16115;SDS011;8162;47.104;15.432;2023-07-13T13:18:47;2.33;;;1.80;;
16115;SDS011;8162;47.104;15.432;2023-07-13T13:21:50;2.60;;;1.90;;
16115;SDS011;8162;47.104;15.432;2023-07-13T13:24:52;3.10;;;1.67;;
16115;SDS011;8162;47.104;15.432;2023-07-13T13:27:54;2.00;;;1.60;;
16115;SDS011;8162;47.104;15.432;2023-07-13T13:30:55;2.47;;;1.57;;
16115;SDS011;8162;47.104;15.432;2023-07-13T13:33:56;1.83;;;1.50;;
16115;SDS011;8162;47.104;15.432;2023-07-13T13:36:57;1.83;;;1.70;;
16115;SDS011;8162;47.104;15.432;2023-07-13T13:39:58;3.20;;;1.67;;
16115;SDS011;8162;47.104;15.432;2023-07-13T13:43:00;2.50;;;1.93;;
16115;SDS011;8162;47.104;15.432;2023-07-13T13:46:01;1.90;;;1.57;;
16115;SDS011;8162;47.104;15.432;2023-07-13T13:49:02;4.03;;;1.93;;
16115;SDS011;8162;47.104;15.432;2023-07-13T13:52:03;5.20;;;2.00;;
16115;SDS011;8162;47.104;15.432;2023-07-13T13:55:11;2.30;;;1.57;;
16115;SDS011;8162;47.104;15.432;2023-07-13T13:58:12;6.03;;;2.37;;
16115;SDS011;8162;47.104;15.432;2023-07-13T14:01:17;7.23;;;2.40;;
16115;SDS011;8162;47.104;15.432;2023-07-13T14:04:20;3.03;;;2.20;;
16115;SDS011;8162;47.104;15.432;2023-07-13T14:07:21;4.97;;;2.13;;
16115;SDS011;8162;47.104;15.432;2023-07-13T14:10:22;2.83;;;1.80;;
16115;SDS011;8162;47.104;15.432;2023-07-13T14:13:45;3.27;;;1.90;;
16115;SDS011;8162;47.104;15.432;2023-07-13T14:16:46;1.70;;;1.40;;
16115;SDS011;8162;47.104;15.432;2023-07-13T14:19:53;3.10;;;1.60;;
16115;SDS011;8162;47.104;15.432;2023-07-13T14:22:57;2.03;;;1.33;;
16115;SDS011;8162;47.104;15.432;2023-07-13T14:25:58;1.80;;;1.70;;
16115;SDS011;8162;47.104;15.432;2023-07-13T14:28:59;1.70;;;1.50;;
16115;SDS011;8162;47.104;15.432;2023-07-13T14:32:00;4.17;;;2.00;;
16115;SDS011;8162;47.104;15.432;2023-07-13T14:35:01;3.90;;;2.03;;
16115;SDS011;8162;47.104;15.432;2023-07-13T14:38:04;1.90;;;1.70;;
16115;SDS011;8162;47.104;15.432;2023-07-13T14:41:07;1.93;;;1.83;;
16115;SDS011;8162;47.104;15.432;2023-07-13T14:44:14;3.00;;;2.27;;
16115;SDS011;8162;47.104;15.432;2023-07-13T14:47:15;4.80;;;2.27;;
16115;SDS011;8162;47.104;15.432;2023-07-13T14:50:18;3.27;;;2.30;;
16115;SDS011;8162;47.104;15.432;2023-07-13T14:53:19;7.53;;;2.53;;
16115;SDS011;8162;47.104;15.432;2023-07-13T14:56:20;2.50;;;2.07;;
16115;SDS011;8162;47.104;15.432;2023-07-13T14:59:21;2.60;;;2.40;;
16115;SDS011;8162;47.104;15.432;2023-07-13T15:02:28;4.63;;;2.10;;
16115;SDS011;8162;47.104;15.432;2023-07-13T15:05:31;6.00;;;2.27;;
16115;SDS011;8162;47.104;15.432;2023-07-13T15:08:32;3.13;;;2.07;;
16115;SDS011;8162;47.104;15.432;2023-07-13T15:11:34;3.23;;;2.20;;
16115;SDS011;8162;47.104;15.432;2023-07-13T15:14:35;3.70;;;1.90;;
16115;SDS011;8162;47.104;15.432;2023-07-13T15:17:38;3.10;;;2.23;;
16115;SDS011;8162;47.104;15.432;2023-07-13T15:20:40;3.33;;;2.57;;
16115;SDS011;8162;47.104;15.432;2023-07-13T15:23:41;6.10;;;2.80;;
16115;SDS011;8162;47.104;15.432;2023-07-13T15:26:42;4.03;;;2.80;;
16115;SDS011;8162;47.104;15.432;2023-07-13T15:29:48;4.87;;;3.10;;
16115;SDS011;8162;47.104;15.432;2023-07-13T15:32:49;5.53;;;2.73;;
16115;SDS011;8162;47.104;15.432;2023-07-13T15:35:50;6.07;;;2.83;;
16115;SDS011;8162;47.104;15.432;2023-07-13T15:38:54;5.20;;;2.50;;
16115;SDS011;8162;47.104;15.432;2023-07-13T15:41:55;5.40;;;3.43;;
16115;SDS011;8162;47.104;15.432;2023-07-13T15:44:56;29.90;;;8.87;;
16115;SDS011;8162;47.104;15.432;2023-07-13T15:47:58;47.73;;;9.47;;
16115;SDS011;8162;47.104;15.432;2023-07-13T15:51:03;9.17;;;5.23;;
16115;SDS011;8162;47.104;15.432;2023-07-13T15:54:05;14.70;;;5.73;;
16115;SDS011;8162;47.104;15.432;2023-07-13T15:57:08;12.73;;;5.40;;
16115;SDS011;8162;47.104;15.432;2023-07-13T16:00:43;9.17;;;4.40;;
16115;SDS011;8162;47.104;15.432;2023-07-13T16:03:37;9.67;;;5.33;;
16115;SDS011;8162;47.104;15.432;2023-07-13T16:06:39;9.83;;;5.23;;
16115;SDS011;8162;47.104;15.432;2023-07-13T16:09:41;17.00;;;6.17;;
16115;SDS011;8162;47.104;15.432;2023-07-13T16:12:42;28.60;;;9.03;;
16115;SDS011;8162;47.104;15.432;2023-07-13T16:15:44;8.70;;;5.53;;
16115;SDS011;8162;47.104;15.432;2023-07-13T16:18:45;10.03;;;5.37;;
16115;SDS011;8162;47.104;15.432;2023-07-13T16:21:46;7.93;;;5.13;;
16115;SDS011;8162;47.104;15.432;2023-07-13T16:24:48;12.00;;;5.47;;
16115;SDS011;8162;47.104;15.432;2023-07-13T16:27:55;5.50;;;4.90;;
16115;SDS011;8162;47.104;15.432;2023-07-13T16:31:01;12.57;;;6.57;;
16115;SDS011;8162;47.104;15.432;2023-07-13T16:34:02;13.93;;;5.73;;
16115;SDS011;8162;47.104;15.432;2023-07-13T16:37:37;11.27;;;6.80;;
16115;SDS011;8162;47.104;15.432;2023-07-13T16:40:32;10.07;;;6.30;;
16115;SDS011;8162;47.104;15.432;2023-07-13T16:43:33;6.17;;;5.23;;
16115;SDS011;8162;47.104;15.432;2023-07-13T16:46:34;8.20;;;5.53;;
16115;SDS011;8162;47.104;15.432;2023-07-13T16:49:36;13.50;;;7.27;;
16115;SDS011;8162;47.104;15.432;2023-07-13T16:52:38;10.97;;;6.33;;
16115;SDS011;8162;47.104;15.432;2023-07-13T16:55:39;12.50;;;7.03;;
16115;SDS011;8162;47.104;15.432;2023-07-13T16:58:40;6.07;;;5.47;;
16115;SDS011;8162;47.104;15.432;2023-07-13T17:01:41;10.53;;;6.23;;
16115;SDS011;8162;47.104;15.432;2023-07-13T17:04:42;13.20;;;7.67;;
16115;SDS011;8162;47.104;15.432;2023-07-13T17:07:43;9.23;;;6.33;;
16115;SDS011;8162;47.104;15.432;2023-07-13T17:10:50;11.90;;;7.73;;
16115;SDS011;8162;47.104;15.432;2023-07-13T17:13:51;11.83;;;6.23;;
16115;SDS011;8162;47.104;15.432;2023-07-13T17:16:54;12.40;;;6.23;;
16115;SDS011;8162;47.104;15.432;2023-07-13T17:19:59;17.07;;;7.90;;
16115;SDS011;8162;47.104;15.432;2023-07-13T17:23:05;11.90;;;6.97;;
16115;SDS011;8162;47.104;15.432;2023-07-13T17:26:10;16.23;;;7.50;;
16115;SDS011;8162;47.104;15.432;2023-07-13T17:29:11;12.87;;;7.30;;
16115;SDS011;8162;47.104;15.432;2023-07-13T17:32:16;10.83;;;6.37;;
16115;SDS011;8162;47.104;15.432;2023-07-13T17:35:26;9.60;;;6.27;;
16115;SDS011;8162;47.104;15.432;2023-07-13T17:38:34;11.53;;;6.57;;
16115;SDS011;8162;47.104;15.432;2023-07-13T17:41:37;7.33;;;5.77;;
16115;SDS011;8162;47.104;15.432;2023-07-13T17:44:40;9.37;;;5.50;;
16115;SDS011;8162;47.104;15.432;2023-07-13T17:47:41;6.33;;;4.57;;
16115;SDS011;8162;47.104;15.432;2023-07-13T17:50:43;8.70;;;5.97;;
16115;SDS011;8162;47.104;15.432;2023-07-13T17:53:44;7.20;;;4.80;;
16115;SDS011;8162;47.104;15.432;2023-07-13T17:56:46;11.10;;;6.43;;
16115;SDS011;8162;47.104;15.432;2023-07-13T17:59:47;9.20;;;5.57;;
16115;SDS011;8162;47.104;15.432;2023-07-13T18:02:48;7.77;;;6.70;;
16115;SDS011;8162;47.104;15.432;2023-07-13T18:05:49;8.23;;;6.00;;
16115;SDS011;8162;47.104;15.432;2023-07-13T18:08:52;12.40;;;6.07;;
16115;SDS011;8162;47.104;15.432;2023-07-13T18:11:54;10.90;;;6.97;;
16115;SDS011;8162;47.104;15.432;2023-07-13T18:14:56;12.77;;;6.67;;
16115;SDS011;8162;47.104;15.432;2023-07-13T18:17:58;15.30;;;7.47;;
16115;SDS011;8162;47.104;15.432;2023-07-13T18:21:00;8.17;;;5.90;;
16115;SDS011;8162;47.104;15.432;2023-07-13T18:24:02;12.67;;;6.70;;
16115;SDS011;8162;47.104;15.432;2023-07-13T18:27:06;13.17;;;6.90;;
16115;SDS011;8162;47.104;15.432;2023-07-13T18:30:09;13.83;;;6.77;;
16115;SDS011;8162;47.104;15.432;2023-07-13T18:33:18;6.90;;;6.03;;
16115;SDS011;8162;47.104;15.432;2023-07-13T18:36:22;20.47;;;7.10;;
16115;SDS011;8162;47.104;15.432;2023-07-13T18:39:25;12.10;;;6.20;;
16115;SDS011;8162;47.104;15.432;2023-07-13T18:42:26;8.70;;;6.30;;
16115;SDS011;8162;47.104;15.432;2023-07-13T18:45:27;7.73;;;5.03;;
16115;SDS011;8162;47.104;15.432;2023-07-13T18:48:31;5.87;;;3.80;;